sensor_id;sensor_type;location;lat;lon;timestamp;P1;durP1;ratioP1;P2;durP2;ratioP2
19285;SDS011;9776;50.798;6.430;2022-10-31T00:01:56;3.83;;;2.15;;
19285;SDS011;9776;50.798;6.430;2022-10-31T00:04:22;2.92;;;2.10;;
19285;SDS011;9776;50.798;6.430;2022-10-31T00:06:49;3.30;;;2.20;;
19285;SDS011;9776;50.798;6.430;2022-10-31T00:09:16;2.50;;;2.30;;
19285;SDS011;9776;50.798;6.430;2022-10-31T00:11:44;2.50;;;2.30;;
19285;SDS011;9776;50.798;6.430;2022-10-31T00:14:10;2.60;;;2.40;;
19285;SDS011;9776;50.798;6.430;2022-10-31T00:16:37;2.70;;;2.45;;
19285;SDS011;9776;50.798;6.430;2022-10-31T00:19:05;2.95;;;2.47;;
19285;SDS011;9776;50.798;6.430;2022-10-31T00:21:33;2.50;;;2.30;;
19285;SDS011;9776;50.798;6.430;2022-10-31T00:24:01;2.50;;;2.28;;
19285;SDS011;9776;50.798;6.430;2022-10-31T00:26:28;3.08;;;2.38;;
19285;SDS011;9776;50.798;6.430;2022-10-31T00:28:57;2.60;;;2.40;;
19285;SDS011;9776;50.798;6.430;2022-10-31T00:31:24;2.70;;;2.50;;
19285;SDS011;9776;50.798;6.430;2022-10-31T00:33:51;4.90;;;2.70;;
19285;SDS011;9776;50.798;6.430;2022-10-31T00:36:18;2.97;;;2.35;;
19285;SDS011;9776;50.798;6.430;2022-10-31T00:38:46;2.75;;;2.55;;
19285;SDS011;9776;50.798;6.430;2022-10-31T00:41:14;2.78;;;2.45;;
19285;SDS011;9776;50.798;6.430;2022-10-31T00:43:42;2.70;;;2.50;;
19285;SDS011;9776;50.798;6.430;2022-10-31T00:46:11;3.30;;;2.40;;
19285;SDS011;9776;50.798;6.430;2022-10-31T00:48:38;2.55;;;2.35;;
19285;SDS011;9776;50.798;6.430;2022-10-31T00:51:05;3.13;;;2.22;;
19285;SDS011;9776;50.798;6.430;2022-10-31T00:53:32;2.90;;;2.70;;
19285;SDS011;9776;50.798;6.430;2022-10-31T00:55:59;2.60;;;2.30;;
19285;SDS011;9776;50.798;6.430;2022-10-31T00:58:25;3.20;;;2.90;;
19285;SDS011;9776;50.798;6.430;2022-10-31T01:00:52;3.10;;;2.80;;
19285;SDS011;9776;50.798;6.430;2022-10-31T01:03:22;2.30;;;2.10;;
19285;SDS011;9776;50.798;6.430;2022-10-31T01:05:56;2.42;;;2.28;;
19285;SDS011;9776;50.798;6.430;2022-10-31T01:08:24;2.97;;;2.75;;
19285;SDS011;9776;50.798;6.430;2022-10-31T01:11:01;3.08;;;2.80;;
19285;SDS011;9776;50.798;6.430;2022-10-31T01:13:30;2.55;;;2.35;;
19285;SDS011;9776;50.798;6.430;2022-10-31T01:15:58;2.50;;;2.30;;
19285;SDS011;9776;50.798;6.430;2022-10-31T01:18:28;3.08;;;2.78;;
19285;SDS011;9776;50.798;6.430;2022-10-31T01:21:02;2.78;;;2.58;;
19285;SDS011;9776;50.798;6.430;2022-10-31T01:23:30;2.97;;;2.75;;
19285;SDS011;9776;50.798;6.430;2022-10-31T01:26:01;2.90;;;2.55;;
19285;SDS011;9776;50.798;6.430;2022-10-31T01:28:30;3.15;;;2.58;;
19285;SDS011;9776;50.798;6.430;2022-10-31T01:30:59;2.83;;;2.63;;
19285;SDS011;9776;50.798;6.430;2022-10-31T01:33:28;4.40;;;2.80;;
19285;SDS011;9776;50.798;6.430;2022-10-31T01:35:55;3.28;;;2.97;;
19285;SDS011;9776;50.798;6.430;2022-10-31T01:38:21;2.80;;;2.60;;
19285;SDS011;9776;50.798;6.430;2022-10-31T01:40:48;3.67;;;2.63;;
19285;SDS011;9776;50.798;6.430;2022-10-31T01:43:15;3.88;;;2.70;;
19285;SDS011;9776;50.798;6.430;2022-10-31T01:45:42;3.03;;;2.80;;
19285;SDS011;9776;50.798;6.430;2022-10-31T01:48:13;2.90;;;2.55;;
19285;SDS011;9776;50.798;6.430;2022-10-31T01:50:42;2.50;;;2.30;;
19285;SDS011;9776;50.798;6.430;2022-10-31T01:53:13;2.65;;;2.45;;
19285;SDS011;9776;50.798;6.430;2022-10-31T01:55:42;3.03;;;2.65;;
19285;SDS011;9776;50.798;6.430;2022-10-31T01:58:12;3.10;;;2.80;;
19285;SDS011;9776;50.798;6.430;2022-10-31T02:00:41;2.78;;;2.58;;
19285;SDS011;9776;50.798;6.430;2022-10-31T02:03:11;3.03;;;2.72;;
19285;SDS011;9776;50.798;6.430;2022-10-31T02:05:38;4.53;;;2.88;;
19285;SDS011;9776;50.798;6.430;2022-10-31T02:08:07;2.65;;;2.45;;
19285;SDS011;9776;50.798;6.430;2022-10-31T02:10:40;2.60;;;2.40;;
19285;SDS011;9776;50.798;6.430;2022-10-31T02:13:09;2.80;;;2.60;;
19285;SDS011;9776;50.798;6.430;2022-10-31T02:15:38;2.80;;;2.60;;
19285;SDS011;9776;50.798;6.430;2022-10-31T02:18:06;2.60;;;2.40;;
19285;SDS011;9776;50.798;6.430;2022-10-31T02:20:36;2.90;;;2.70;;
19285;SDS011;9776;50.798;6.430;2022-10-31T02:23:23;2.90;;;2.70;;
19285;SDS011;9776;50.798;6.430;2022-10-31T02:26:20;2.90;;;2.70;;
19285;SDS011;9776;50.798;6.430;2022-10-31T02:29:03;2.85;;;2.63;;
19285;SDS011;9776;50.798;6.430;2022-10-31T02:31:44;2.63;;;2.38;;
19285;SDS011;9776;50.798;6.430;2022-10-31T02:34:18;2.63;;;2.42;;
19285;SDS011;9776;50.798;6.430;2022-10-31T02:36:51;2.95;;;2.65;;
19285;SDS011;9776;50.798;6.430;2022-10-31T02:39:23;2.85;;;2.65;;
19285;SDS011;9776;50.798;6.430;2022-10-31T02:41:55;2.72;;;2.53;;
19285;SDS011;9776;50.798;6.430;2022-10-31T02:44:35;2.83;;;2.63;;
19285;SDS011;9776;50.798;6.430;2022-10-31T02:47:06;3.35;;;2.55;;
19285;SDS011;9776;50.798;6.430;2022-10-31T02:49:40;2.67;;;2.47;;
19285;SDS011;9776;50.798;6.430;2022-10-31T02:52:16;2.83;;;2.63;;
19285;SDS011;9776;50.798;6.430;2022-10-31T02:54:45;2.88;;;2.67;;
19285;SDS011;9776;50.798;6.430;2022-10-31T02:57:13;2.45;;;2.25;;
19285;SDS011;9776;50.798;6.430;2022-10-31T02:59:44;3.58;;;2.90;;
19285;SDS011;9776;50.798;6.430;2022-10-31T03:02:21;2.80;;;2.60;;
19285;SDS011;9776;50.798;6.430;2022-10-31T03:08:06;2.35;;;2.17;;
19285;SDS011;9776;50.798;6.430;2022-10-31T03:10:39;3.13;;;2.90;;
19285;SDS011;9776;50.798;6.430;2022-10-31T03:13:10;2.70;;;2.50;;
19285;SDS011;9776;50.798;6.430;2022-10-31T03:15:43;2.95;;;2.75;;
19285;SDS011;9776;50.798;6.430;2022-10-31T03:18:17;2.70;;;2.50;;
19285;SDS011;9776;50.798;6.430;2022-10-31T03:20:54;2.95;;;2.67;;
19285;SDS011;9776;50.798;6.430;2022-10-31T03:23:25;3.15;;;2.85;;
19285;SDS011;9776;50.798;6.430;2022-10-31T03:25:54;2.95;;;2.75;;
19285;SDS011;9776;50.798;6.430;2022-10-31T03:28:22;2.80;;;2.53;;
19285;SDS011;9776;50.798;6.430;2022-10-31T03:30:51;3.53;;;2.92;;
19285;SDS011;9776;50.798;6.430;2022-10-31T03:33:23;3.75;;;3.40;;
19285;SDS011;9776;50.798;6.430;2022-10-31T03:35:55;3.35;;;3.05;;
19285;SDS011;9776;50.798;6.430;2022-10-31T03:38:26;3.60;;;3.30;;
19285;SDS011;9776;50.798;6.430;2022-10-31T03:40:54;3.55;;;3.17;;
19285;SDS011;9776;50.798;6.430;2022-10-31T03:43:26;3.20;;;3.00;;
19285;SDS011;9776;50.798;6.430;2022-10-31T03:45:55;3.63;;;3.33;;
19285;SDS011;9776;50.798;6.430;2022-10-31T03:48:24;3.05;;;2.85;;
19285;SDS011;9776;50.798;6.430;2022-10-31T03:51:01;3.13;;;2.83;;
19285;SDS011;9776;50.798;6.430;2022-10-31T03:53:34;4.20;;;3.25;;
19285;SDS011;9776;50.798;6.430;2022-10-31T03:56:06;3.63;;;3.30;;
19285;SDS011;9776;50.798;6.430;2022-10-31T03:58:36;3.20;;;2.90;;
19285;SDS011;9776;50.798;6.430;2022-10-31T04:01:08;3.20;;;3.00;;
19285;SDS011;9776;50.798;6.430;2022-10-31T04:03:40;3.85;;;3.45;;
19285;SDS011;9776;50.798;6.430;2022-10-31T04:06:09;3.58;;;3.30;;
19285;SDS011;9776;50.798;6.430;2022-10-31T04:08:40;3.65;;;3.17;;
19285;SDS011;9776;50.798;6.430;2022-10-31T04:11:11;3.63;;;3.33;;
19285;SDS011;9776;50.798;6.430;2022-10-31T04:13:39;3.80;;;3.50;;
19285;SDS011;9776;50.798;6.430;2022-10-31T04:16:10;3.58;;;3.28;;
19285;SDS011;9776;50.798;6.430;2022-10-31T04:18:38;3.63;;;3.10;;
19285;SDS011;9776;50.798;6.430;2022-10-31T04:21:07;4.18;;;3.55;;
19285;SDS011;9776;50.798;6.430;2022-10-31T04:23:34;3.83;;;3.53;;
19285;SDS011;9776;50.798;6.430;2022-10-31T04:26:02;3.33;;;3.05;;
19285;SDS011;9776;50.798;6.430;2022-10-31T04:28:28;3.67;;;3.30;;
19285;SDS011;9776;50.798;6.430;2022-10-31T04:30:55;3.55;;;3.25;;
19285;SDS011;9776;50.798;6.430;2022-10-31T04:33:22;3.70;;;3.40;;
19285;SDS011;9776;50.798;6.430;2022-10-31T04:35:48;3.67;;;3.38;;
19285;SDS011;9776;50.798;6.430;2022-10-31T04:38:16;3.58;;;3.28;;
19285;SDS011;9776;50.798;6.430;2022-10-31T04:40:44;3.53;;;3.22;;
19285;SDS011;9776;50.798;6.430;2022-10-31T04:43:11;3.40;;;3.10;;
19285;SDS011;9776;50.798;6.430;2022-10-31T04:45:38;3.47;;;3.03;;
19285;SDS011;9776;50.798;6.430;2022-10-31T04:48:05;2.95;;;2.75;;
19285;SDS011;9776;50.798;6.430;2022-10-31T04:50:31;4.13;;;3.15;;
19285;SDS011;9776;50.798;6.430;2022-10-31T04:52:58;3.10;;;2.90;;
19285;SDS011;9776;50.798;6.430;2022-10-31T04:55:26;3.50;;;3.20;;
19285;SDS011;9776;50.798;6.430;2022-10-31T04:57:52;3.40;;;3.10;;
19285;SDS011;9776;50.798;6.430;2022-10-31T05:00:20;3.17;;;2.97;;
19285;SDS011;9776;50.798;6.430;2022-10-31T05:02:48;3.28;;;3.00;;
19285;SDS011;9776;50.798;6.430;2022-10-31T05:05:16;3.08;;;2.83;;
19285;SDS011;9776;50.798;6.430;2022-10-31T05:07:44;3.42;;;3.22;;
19285;SDS011;9776;50.798;6.430;2022-10-31T05:10:12;3.33;;;3.03;;
19285;SDS011;9776;50.798;6.430;2022-10-31T05:12:46;2.90;;;2.70;;
19285;SDS011;9776;50.798;6.430;2022-10-31T05:15:14;3.75;;;3.40;;
19285;SDS011;9776;50.798;6.430;2022-10-31T05:17:41;4.05;;;3.35;;
19285;SDS011;9776;50.798;6.430;2022-10-31T05:20:08;3.80;;;3.35;;
19285;SDS011;9776;50.798;6.430;2022-10-31T05:22:35;3.67;;;3.38;;
19285;SDS011;9776;50.798;6.430;2022-10-31T05:25:02;3.85;;;3.38;;
19285;SDS011;9776;50.798;6.430;2022-10-31T05:27:29;3.33;;;3.03;;
19285;SDS011;9776;50.798;6.430;2022-10-31T05:29:57;3.33;;;3.03;;
19285;SDS011;9776;50.798;6.430;2022-10-31T05:32:24;3.65;;;3.35;;
19285;SDS011;9776;50.798;6.430;2022-10-31T05:34:50;3.63;;;3.33;;
19285;SDS011;9776;50.798;6.430;2022-10-31T05:37:17;3.38;;;3.17;;
19285;SDS011;9776;50.798;6.430;2022-10-31T05:39:43;4.65;;;3.13;;
19285;SDS011;9776;50.798;6.430;2022-10-31T05:42:10;3.83;;;3.42;;
19285;SDS011;9776;50.798;6.430;2022-10-31T05:44:37;3.25;;;2.95;;
19285;SDS011;9776;50.798;6.430;2022-10-31T05:47:06;3.47;;;3.15;;
19285;SDS011;9776;50.798;6.430;2022-10-31T05:49:32;3.10;;;2.90;;
19285;SDS011;9776;50.798;6.430;2022-10-31T05:51:59;3.15;;;2.88;;
19285;SDS011;9776;50.798;6.430;2022-10-31T05:54:26;4.68;;;3.30;;
19285;SDS011;9776;50.798;6.430;2022-10-31T05:56:52;3.35;;;3.05;;
19285;SDS011;9776;50.798;6.430;2022-10-31T05:59:19;3.65;;;3.45;;
19285;SDS011;9776;50.798;6.430;2022-10-31T06:01:45;5.22;;;3.45;;
19285;SDS011;9776;50.798;6.430;2022-10-31T06:04:13;6.25;;;3.67;;
19285;SDS011;9776;50.798;6.430;2022-10-31T06:06:40;4.07;;;3.10;;
19285;SDS011;9776;50.798;6.430;2022-10-31T06:09:07;4.13;;;3.83;;
19285;SDS011;9776;50.798;6.430;2022-10-31T06:11:33;4.13;;;3.83;;
19285;SDS011;9776;50.798;6.430;2022-10-31T06:14:00;3.75;;;3.45;;
19285;SDS011;9776;50.798;6.430;2022-10-31T06:16:27;3.72;;;3.42;;
19285;SDS011;9776;50.798;6.430;2022-10-31T06:18:53;4.05;;;3.75;;
19285;SDS011;9776;50.798;6.430;2022-10-31T06:21:21;3.85;;;3.55;;
19285;SDS011;9776;50.798;6.430;2022-10-31T06:23:48;4.10;;;3.70;;
19285;SDS011;9776;50.798;6.430;2022-10-31T06:26:15;3.85;;;3.55;;
19285;SDS011;9776;50.798;6.430;2022-10-31T06:28:41;3.95;;;3.65;;
19285;SDS011;9776;50.798;6.430;2022-10-31T06:31:08;4.35;;;3.75;;
19285;SDS011;9776;50.798;6.430;2022-10-31T06:33:35;3.85;;;3.55;;
19285;SDS011;9776;50.798;6.430;2022-10-31T06:36:03;3.80;;;3.42;;
19285;SDS011;9776;50.798;6.430;2022-10-31T06:38:31;3.88;;;3.58;;
19285;SDS011;9776;50.798;6.430;2022-10-31T06:41:01;3.72;;;3.42;;
19285;SDS011;9776;50.798;6.430;2022-10-31T06:43:29;4.90;;;4.50;;
19285;SDS011;9776;50.798;6.430;2022-10-31T06:45:56;3.63;;;3.38;;
19285;SDS011;9776;50.798;6.430;2022-10-31T06:48:23;4.13;;;3.30;;
19285;SDS011;9776;50.798;6.430;2022-10-31T06:50:50;4.30;;;4.00;;
19285;SDS011;9776;50.798;6.430;2022-10-31T06:53:17;4.15;;;3.85;;
19285;SDS011;9776;50.798;6.430;2022-10-31T06:55:45;4.05;;;3.67;;
19285;SDS011;9776;50.798;6.430;2022-10-31T06:58:11;3.92;;;3.63;;
19285;SDS011;9776;50.798;6.430;2022-10-31T07:00:38;3.75;;;3.50;;
19285;SDS011;9776;50.798;6.430;2022-10-31T07:03:06;5.18;;;3.75;;
19285;SDS011;9776;50.798;6.430;2022-10-31T07:05:35;4.22;;;3.80;;
19285;SDS011;9776;50.798;6.430;2022-10-31T07:08:02;3.50;;;3.30;;
19285;SDS011;9776;50.798;6.430;2022-10-31T07:10:31;4.70;;;4.25;;
19285;SDS011;9776;50.798;6.430;2022-10-31T07:13:01;4.47;;;4.07;;
19285;SDS011;9776;50.798;6.430;2022-10-31T07:15:32;4.25;;;3.95;;
19285;SDS011;9776;50.798;6.430;2022-10-31T07:18:02;4.53;;;4.22;;
19285;SDS011;9776;50.798;6.430;2022-10-31T07:20:29;4.40;;;4.00;;
19285;SDS011;9776;50.798;6.430;2022-10-31T07:22:56;4.28;;;3.97;;
19285;SDS011;9776;50.798;6.430;2022-10-31T07:25:23;4.45;;;4.10;;
19285;SDS011;9776;50.798;6.430;2022-10-31T07:27:49;5.20;;;4.80;;
19285;SDS011;9776;50.798;6.430;2022-10-31T07:30:18;4.88;;;4.47;;
19285;SDS011;9776;50.798;6.430;2022-10-31T07:32:46;5.07;;;4.50;;
19285;SDS011;9776;50.798;6.430;2022-10-31T07:35:14;4.97;;;4.55;;
19285;SDS011;9776;50.798;6.430;2022-10-31T07:37:42;4.95;;;4.55;;
19285;SDS011;9776;50.798;6.430;2022-10-31T07:40:09;5.95;;;5.35;;
19285;SDS011;9776;50.798;6.430;2022-10-31T07:42:37;5.93;;;5.43;;
19285;SDS011;9776;50.798;6.430;2022-10-31T07:45:05;5.25;;;4.85;;
19285;SDS011;9776;50.798;6.430;2022-10-31T07:47:39;6.05;;;5.50;;
19285;SDS011;9776;50.798;6.430;2022-10-31T07:50:06;5.85;;;5.20;;
19285;SDS011;9776;50.798;6.430;2022-10-31T07:52:33;6.07;;;5.30;;
19285;SDS011;9776;50.798;6.430;2022-10-31T07:55:00;6.50;;;5.60;;
19285;SDS011;9776;50.798;6.430;2022-10-31T07:57:27;7.75;;;5.80;;
19285;SDS011;9776;50.798;6.430;2022-10-31T07:59:54;6.30;;;5.80;;
19285;SDS011;9776;50.798;6.430;2022-10-31T08:02:22;6.20;;;5.60;;
19285;SDS011;9776;50.798;6.430;2022-10-31T08:04:51;6.53;;;5.93;;
19285;SDS011;9776;50.798;6.430;2022-10-31T08:07:17;5.72;;;5.22;;
19285;SDS011;9776;50.798;6.430;2022-10-31T08:09:44;5.65;;;5.03;;
19285;SDS011;9776;50.798;6.430;2022-10-31T08:12:11;5.85;;;5.25;;
19285;SDS011;9776;50.798;6.430;2022-10-31T08:14:37;6.75;;;6.13;;
19285;SDS011;9776;50.798;6.430;2022-10-31T08:17:04;6.28;;;5.70;;
19285;SDS011;9776;50.798;6.430;2022-10-31T08:19:31;5.93;;;5.43;;
19285;SDS011;9776;50.798;6.430;2022-10-31T08:21:59;6.82;;;5.55;;
19285;SDS011;9776;50.798;6.430;2022-10-31T08:24:25;5.90;;;5.35;;
19285;SDS011;9776;50.798;6.430;2022-10-31T08:26:52;5.53;;;5.13;;
19285;SDS011;9776;50.798;6.430;2022-10-31T08:29:19;5.72;;;5.22;;
19285;SDS011;9776;50.798;6.430;2022-10-31T08:31:46;6.68;;;5.97;;
19285;SDS011;9776;50.798;6.430;2022-10-31T08:34:12;6.25;;;5.72;;
19285;SDS011;9776;50.798;6.430;2022-10-31T08:36:39;5.95;;;5.43;;
19285;SDS011;9776;50.798;6.430;2022-10-31T08:39:08;6.53;;;5.85;;
19285;SDS011;9776;50.798;6.430;2022-10-31T08:41:35;6.25;;;5.75;;
19285;SDS011;9776;50.798;6.430;2022-10-31T08:44:02;6.20;;;5.68;;
19285;SDS011;9776;50.798;6.430;2022-10-31T08:46:29;6.10;;;5.60;;
19285;SDS011;9776;50.798;6.430;2022-10-31T08:48:56;6.20;;;5.63;;
19285;SDS011;9776;50.798;6.430;2022-10-31T08:51:23;6.15;;;5.65;;
19285;SDS011;9776;50.798;6.430;2022-10-31T08:53:49;7.65;;;6.70;;
19285;SDS011;9776;50.798;6.430;2022-10-31T08:56:17;6.50;;;5.60;;
19285;SDS011;9776;50.798;6.430;2022-10-31T08:58:44;6.63;;;6.05;;
19285;SDS011;9776;50.798;6.430;2022-10-31T09:01:11;6.32;;;5.82;;
19285;SDS011;9776;50.798;6.430;2022-10-31T09:03:37;6.00;;;5.50;;
19285;SDS011;9776;50.798;6.430;2022-10-31T09:06:04;6.15;;;5.65;;
19285;SDS011;9776;50.798;6.430;2022-10-31T09:08:33;6.95;;;6.20;;
19285;SDS011;9776;50.798;6.430;2022-10-31T09:11:01;6.28;;;5.75;;
19285;SDS011;9776;50.798;6.430;2022-10-31T09:13:30;6.13;;;5.45;;
19285;SDS011;9776;50.798;6.430;2022-10-31T09:15:57;6.80;;;6.20;;
19285;SDS011;9776;50.798;6.430;2022-10-31T09:18:24;8.00;;;5.97;;
19285;SDS011;9776;50.798;6.430;2022-10-31T09:20:53;6.35;;;5.85;;
19285;SDS011;9776;50.798;6.430;2022-10-31T09:23:20;6.45;;;5.85;;
19285;SDS011;9776;50.798;6.430;2022-10-31T09:25:48;9.15;;;5.93;;
19285;SDS011;9776;50.798;6.430;2022-10-31T09:28:16;5.95;;;5.45;;
19285;SDS011;9776;50.798;6.430;2022-10-31T09:30:47;6.40;;;5.75;;
19285;SDS011;9776;50.798;6.430;2022-10-31T09:33:14;6.15;;;5.65;;
19285;SDS011;9776;50.798;6.430;2022-10-31T09:35:41;5.70;;;5.20;;
19285;SDS011;9776;50.798;6.430;2022-10-31T09:38:08;5.95;;;4.80;;
19285;SDS011;9776;50.798;6.430;2022-10-31T09:40:37;5.95;;;4.97;;
19285;SDS011;9776;50.798;6.430;2022-10-31T09:43:08;5.45;;;4.93;;
19285;SDS011;9776;50.798;6.430;2022-10-31T09:45:44;7.00;;;4.80;;
19285;SDS011;9776;50.798;6.430;2022-10-31T09:48:28;6.90;;;5.35;;
19285;SDS011;9776;50.798;6.430;2022-10-31T09:51:12;5.03;;;4.53;;
19285;SDS011;9776;50.798;6.430;2022-10-31T09:53:45;4.97;;;4.50;;
19285;SDS011;9776;50.798;6.430;2022-10-31T09:56:16;4.50;;;4.00;;
19285;SDS011;9776;50.798;6.430;2022-10-31T09:58:45;4.40;;;4.00;;
19285;SDS011;9776;50.798;6.430;2022-10-31T10:01:19;5.85;;;4.28;;
19285;SDS011;9776;50.798;6.430;2022-10-31T10:03:57;4.35;;;3.95;;
19285;SDS011;9776;50.798;6.430;2022-10-31T10:06:28;5.32;;;4.03;;
19285;SDS011;9776;50.798;6.430;2022-10-31T10:08:58;4.30;;;3.90;;
19285;SDS011;9776;50.798;6.430;2022-10-31T10:11:29;5.30;;;4.80;;
19285;SDS011;9776;50.798;6.430;2022-10-31T10:14:12;5.10;;;4.60;;
19285;SDS011;9776;50.798;6.430;2022-10-31T10:16:59;4.78;;;4.47;;
19285;SDS011;9776;50.798;6.430;2022-10-31T10:19:42;5.35;;;3.50;;
19285;SDS011;9776;50.798;6.430;2022-10-31T10:22:28;3.80;;;3.42;;
19285;SDS011;9776;50.798;6.430;2022-10-31T10:25:09;3.78;;;3.47;;
19285;SDS011;9776;50.798;6.430;2022-10-31T10:27:46;3.47;;;3.17;;
19285;SDS011;9776;50.798;6.430;2022-10-31T10:30:17;3.67;;;3.10;;
19285;SDS011;9776;50.798;6.430;2022-10-31T10:32:47;3.40;;;2.92;;
19285;SDS011;9776;50.798;6.430;2022-10-31T10:35:21;2.95;;;2.75;;
19285;SDS011;9776;50.798;6.430;2022-10-31T10:37:51;4.45;;;4.05;;
19285;SDS011;9776;50.798;6.430;2022-10-31T10:40:23;2.90;;;2.70;;
19285;SDS011;9776;50.798;6.430;2022-10-31T10:42:53;3.13;;;2.80;;
19285;SDS011;9776;50.798;6.430;2022-10-31T10:45:42;3.55;;;3.10;;
19285;SDS011;9776;50.798;6.430;2022-10-31T10:48:36;3.28;;;2.90;;
19285;SDS011;9776;50.798;6.430;2022-10-31T10:51:20;4.63;;;2.92;;
19285;SDS011;9776;50.798;6.430;2022-10-31T10:53:55;6.85;;;3.72;;
19285;SDS011;9776;50.798;6.430;2022-10-31T10:56:32;3.58;;;3.10;;
19285;SDS011;9776;50.798;6.430;2022-10-31T10:59:15;3.20;;;2.90;;
19285;SDS011;9776;50.798;6.430;2022-10-31T11:01:44;2.97;;;2.67;;
19285;SDS011;9776;50.798;6.430;2022-10-31T11:04:30;3.47;;;2.92;;
19285;SDS011;9776;50.798;6.430;2022-10-31T11:06:59;3.40;;;2.65;;
19285;SDS011;9776;50.798;6.430;2022-10-31T11:09:27;2.97;;;2.78;;
19285;SDS011;9776;50.798;6.430;2022-10-31T11:11:54;4.47;;;2.70;;
19285;SDS011;9776;50.798;6.430;2022-10-31T11:14:21;3.70;;;2.85;;
19285;SDS011;9776;50.798;6.430;2022-10-31T11:16:50;2.83;;;2.60;;
19285;SDS011;9776;50.798;6.430;2022-10-31T11:19:21;2.97;;;2.42;;
19285;SDS011;9776;50.798;6.430;2022-10-31T11:21:51;2.42;;;2.22;;
19285;SDS011;9776;50.798;6.430;2022-10-31T11:24:19;2.63;;;2.42;;
19285;SDS011;9776;50.798;6.430;2022-10-31T11:26:48;4.85;;;2.80;;
19285;SDS011;9776;50.798;6.430;2022-10-31T11:29:19;3.15;;;2.65;;
19285;SDS011;9776;50.798;6.430;2022-10-31T11:31:47;2.65;;;2.40;;
19285;SDS011;9776;50.798;6.430;2022-10-31T11:34:21;3.00;;;2.70;;
19285;SDS011;9776;50.798;6.430;2022-10-31T11:36:55;3.20;;;2.90;;
19285;SDS011;9776;50.798;6.430;2022-10-31T11:39:26;3.10;;;2.80;;
19285;SDS011;9776;50.798;6.430;2022-10-31T11:41:53;3.05;;;2.85;;
19285;SDS011;9776;50.798;6.430;2022-10-31T11:44:22;3.33;;;3.03;;
19285;SDS011;9776;50.798;6.430;2022-10-31T11:46:52;3.58;;;3.28;;
19285;SDS011;9776;50.798;6.430;2022-10-31T11:49:24;3.67;;;3.35;;
19285;SDS011;9776;50.798;6.430;2022-10-31T11:51:57;5.03;;;4.35;;
19285;SDS011;9776;50.798;6.430;2022-10-31T11:54:27;4.13;;;3.40;;
19285;SDS011;9776;50.798;6.430;2022-10-31T11:56:55;4.25;;;3.90;;
19285;SDS011;9776;50.798;6.430;2022-10-31T11:59:25;4.88;;;4.28;;
19285;SDS011;9776;50.798;6.430;2022-10-31T12:01:54;5.47;;;3.88;;
19285;SDS011;9776;50.798;6.430;2022-10-31T12:04:24;4.22;;;3.92;;
19285;SDS011;9776;50.798;6.430;2022-10-31T12:06:58;4.50;;;4.10;;
19285;SDS011;9776;50.798;6.430;2022-10-31T12:09:26;4.63;;;4.03;;
19285;SDS011;9776;50.798;6.430;2022-10-31T12:15:15;5.07;;;3.90;;
19285;SDS011;9776;50.798;6.430;2022-10-31T12:17:52;4.13;;;3.60;;
19285;SDS011;9776;50.798;6.430;2022-10-31T12:20:27;4.68;;;4.20;;
19285;SDS011;9776;50.798;6.430;2022-10-31T12:23:08;4.45;;;4.05;;
19285;SDS011;9776;50.798;6.430;2022-10-31T12:25:42;5.00;;;4.60;;
19285;SDS011;9776;50.798;6.430;2022-10-31T12:28:30;5.95;;;5.05;;
19285;SDS011;9776;50.798;6.430;2022-10-31T12:31:12;4.22;;;3.83;;
19285;SDS011;9776;50.798;6.430;2022-10-31T12:33:52;4.47;;;4.18;;
19285;SDS011;9776;50.798;6.430;2022-10-31T12:36:29;4.22;;;3.85;;
19285;SDS011;9776;50.798;6.430;2022-10-31T12:39:13;4.25;;;3.80;;
19285;SDS011;9776;50.798;6.430;2022-10-31T12:41:51;6.95;;;3.78;;
19285;SDS011;9776;50.798;6.430;2022-10-31T12:44:41;3.85;;;3.55;;
19285;SDS011;9776;50.798;6.430;2022-10-31T12:47:34;3.95;;;2.90;;
19285;SDS011;9776;50.798;6.430;2022-10-31T12:50:28;3.40;;;3.20;;
19285;SDS011;9776;50.798;6.430;2022-10-31T12:53:16;3.33;;;3.03;;
19285;SDS011;9776;50.798;6.430;2022-10-31T12:55:58;2.95;;;2.75;;
19285;SDS011;9776;50.798;6.430;2022-10-31T12:58:36;4.38;;;3.15;;
19285;SDS011;9776;50.798;6.430;2022-10-31T13:01:11;3.55;;;3.25;;
19285;SDS011;9776;50.798;6.430;2022-10-31T13:03:44;3.10;;;2.90;;
19285;SDS011;9776;50.798;6.430;2022-10-31T13:06:18;3.78;;;2.72;;
19285;SDS011;9776;50.798;6.430;2022-10-31T13:08:49;2.90;;;2.70;;
19285;SDS011;9776;50.798;6.430;2022-10-31T13:11:22;3.08;;;2.78;;
19285;SDS011;9776;50.798;6.430;2022-10-31T13:13:55;6.25;;;2.67;;
19285;SDS011;9776;50.798;6.430;2022-10-31T13:16:28;2.60;;;2.42;;
19285;SDS011;9776;50.798;6.430;2022-10-31T13:19:02;2.65;;;2.45;;
19285;SDS011;9776;50.798;6.430;2022-10-31T13:21:37;3.42;;;3.13;;
19285;SDS011;9776;50.798;6.430;2022-10-31T13:24:10;2.85;;;2.65;;
19285;SDS011;9776;50.798;6.430;2022-10-31T13:26:43;2.95;;;2.75;;
19285;SDS011;9776;50.798;6.430;2022-10-31T13:29:16;2.80;;;2.60;;
19285;SDS011;9776;50.798;6.430;2022-10-31T13:31:49;2.72;;;2.53;;
19285;SDS011;9776;50.798;6.430;2022-10-31T13:34:18;3.15;;;2.85;;
19285;SDS011;9776;50.798;6.430;2022-10-31T13:36:53;3.28;;;3.03;;
19285;SDS011;9776;50.798;6.430;2022-10-31T13:39:28;3.35;;;2.85;;
19285;SDS011;9776;50.798;6.430;2022-10-31T13:42:08;4.15;;;2.90;;
19285;SDS011;9776;50.798;6.430;2022-10-31T13:44:40;3.30;;;3.00;;
19285;SDS011;9776;50.798;6.430;2022-10-31T13:47:20;2.97;;;2.70;;
19285;SDS011;9776;50.798;6.430;2022-10-31T13:49:48;3.05;;;2.72;;
19285;SDS011;9776;50.798;6.430;2022-10-31T13:52:16;3.13;;;2.92;;
19285;SDS011;9776;50.798;6.430;2022-10-31T13:54:50;3.42;;;2.42;;
19285;SDS011;9776;50.798;6.430;2022-10-31T13:57:24;2.72;;;2.47;;
19285;SDS011;9776;50.798;6.430;2022-10-31T13:59:59;2.83;;;2.47;;
19285;SDS011;9776;50.798;6.430;2022-10-31T14:02:28;4.53;;;2.70;;
19285;SDS011;9776;50.798;6.430;2022-10-31T14:04:58;2.92;;;2.63;;
19285;SDS011;9776;50.798;6.430;2022-10-31T14:07:26;3.38;;;2.80;;
19285;SDS011;9776;50.798;6.430;2022-10-31T14:09:56;2.50;;;2.30;;
19285;SDS011;9776;50.798;6.430;2022-10-31T14:12:28;2.47;;;2.28;;
19285;SDS011;9776;50.798;6.430;2022-10-31T14:14:58;2.75;;;2.15;;
19285;SDS011;9776;50.798;6.430;2022-10-31T14:17:31;2.38;;;2.17;;
19285;SDS011;9776;50.798;6.430;2022-10-31T14:20:25;2.38;;;2.17;;
19285;SDS011;9776;50.798;6.430;2022-10-31T14:23:09;2.63;;;2.42;;
19285;SDS011;9776;50.798;6.430;2022-10-31T14:25:38;2.80;;;2.60;;
19285;SDS011;9776;50.798;6.430;2022-10-31T14:28:19;3.15;;;2.53;;
19285;SDS011;9776;50.798;6.430;2022-10-31T14:30:53;3.28;;;2.50;;
19285;SDS011;9776;50.798;6.430;2022-10-31T14:33:22;3.25;;;2.65;;
19285;SDS011;9776;50.798;6.430;2022-10-31T14:35:53;3.95;;;2.35;;
19285;SDS011;9776;50.798;6.430;2022-10-31T14:38:37;2.90;;;2.70;;
19285;SDS011;9776;50.798;6.430;2022-10-31T14:41:23;2.70;;;2.50;;
19285;SDS011;9776;50.798;6.430;2022-10-31T14:44:13;3.05;;;2.63;;
19285;SDS011;9776;50.798;6.430;2022-10-31T14:46:52;3.25;;;2.20;;
19285;SDS011;9776;50.798;6.430;2022-10-31T14:49:31;2.28;;;2.10;;
19285;SDS011;9776;50.798;6.430;2022-10-31T14:52:11;2.60;;;2.40;;
19285;SDS011;9776;50.798;6.430;2022-10-31T14:54:40;2.40;;;2.20;;
19285;SDS011;9776;50.798;6.430;2022-10-31T14:57:14;2.55;;;2.28;;
19285;SDS011;9776;50.798;6.430;2022-10-31T14:59:47;3.33;;;3.03;;
19285;SDS011;9776;50.798;6.430;2022-10-31T15:02:18;2.58;;;2.38;;
19285;SDS011;9776;50.798;6.430;2022-10-31T15:04:49;2.45;;;2.25;;
19285;SDS011;9776;50.798;6.430;2022-10-31T15:07:19;2.58;;;2.20;;
19285;SDS011;9776;50.798;6.430;2022-10-31T15:09:54;3.63;;;2.40;;
19285;SDS011;9776;50.798;6.430;2022-10-31T15:12:23;3.55;;;2.35;;
19285;SDS011;9776;50.798;6.430;2022-10-31T15:14:52;2.80;;;2.60;;
19285;SDS011;9776;50.798;6.430;2022-10-31T15:17:20;3.90;;;2.40;;
19285;SDS011;9776;50.798;6.430;2022-10-31T15:19:48;2.90;;;2.30;;
19285;SDS011;9776;50.798;6.430;2022-10-31T15:22:16;2.70;;;2.50;;
19285;SDS011;9776;50.798;6.430;2022-10-31T15:24:44;2.50;;;2.38;;
19285;SDS011;9776;50.798;6.430;2022-10-31T15:27:12;2.90;;;2.65;;
19285;SDS011;9776;50.798;6.430;2022-10-31T15:29:47;2.58;;;2.38;;